Time;durP1;ratioP1;P1;durP2;ratioP2;P2;SDS_P1;SDS_P2;PMS_P1;PMS_P2;Temp;Humidity;BMP_temperature;BMP_pressure;BME280_temperature;BME280_humidity;BME280_pressure;Samples;Min_cycle;Max_cycle;Signal;HPM_P1;HPM_P2
2021/09/22 00:01:56;;;;;;;92.97;61.13;;;13.70;99.90;;;;;;5065561;28;20574;-81
2021/09/22 00:04:22;;;;;;;99.53;81.43;;;13.70;99.90;;;;;;5065242;28;20196;-80
2021/09/22 00:06:48;;;;;;;80.03;36.33;;;13.70;99.90;;;;;;5046304;28;20200;-81
2021/09/22 00:09:13;;;;;;;84.33;50.20;;;13.70;99.90;;;;;;5065084;28;20192;-81
2021/09/22 00:11:39;;;;;;;95.90;70.53;;;13.70;99.90;;;;;;5064227;28;20632;-81
2021/09/22 00:14:05;;;;;;;93.67;63.77;;;13.70;99.90;;;;;;5064873;28;20259;-81
2021/09/22 00:16:31;;;;;;;91.73;58.50;;;13.60;99.90;;;;;;5064419;28;20247;-81
2021/09/22 00:18:57;;;;;;;84.73;48.43;;;13.70;99.90;;;;;;5063843;28;20399;-81
2021/09/22 00:21:22;;;;;;;107.27;95.37;;;13.70;99.90;;;;;;5064218;28;20171;-81
2021/09/22 00:23:48;;;;;;;110.80;98.07;;;13.60;99.90;;;;;;5046799;28;20173;-81
2021/09/22 00:26:14;;;;;;;165.17;151.40;;;13.60;99.90;;;;;;5064533;28;20173;-81
2021/09/22 00:28:40;;;;;;;137.33;124.47;;;13.50;99.90;;;;;;5046215;28;20176;-81
2021/09/22 00:31:05;;;;;;;150.90;137.57;;;13.50;99.90;;;;;;5063908;28;20395;-81
2021/09/22 00:33:31;;;;;;;132.13;119.63;;;13.50;99.90;;;;;;5049138;28;20639;-81
2021/09/22 00:35:58;;;;;;;187.60;173.17;;;13.50;99.90;;;;;;5067204;28;20156;-81
2021/09/22 00:38:24;;;;;;;176.10;162.03;;;13.50;99.90;;;;;;5067490;28;20184;-80
2021/09/22 00:40:50;;;;;;;181.43;167.17;;;13.50;99.90;;;;;;5109123;22;20489;-87
2021/09/22 00:43:16;;;;;;;191.30;176.37;;;13.50;99.90;;;;;;5055763;28;20539;-87
2021/09/22 00:45:42;;;;;;;165.67;151.83;;;13.40;99.90;;;;;;5055808;28;20402;-87
2021/09/22 00:48:07;;;;;;;205.97;190.77;;;13.40;99.90;;;;;;5055890;28;20468;-87
2021/09/22 00:50:33;;;;;;;193.70;178.83;;;13.40;99.90;;;;;;5037794;28;20407;-87
2021/09/22 00:52:59;;;;;;;172.20;158.23;;;13.40;99.90;;;;;;5055681;28;20239;-87
2021/09/22 00:55:25;;;;;;;176.73;162.50;;;13.30;99.90;;;;;;5055528;28;20446;-87
2021/09/22 00:57:54;;;;;;;172.70;158.60;;;13.30;99.90;;;;;;5055517;28;20526;-87
2021/09/22 01:00:23;;;;;;;247.53;230.57;;;13.30;99.90;;;;;;5037925;28;20620;-87
2021/09/22 01:02:49;;;;;;;262.10;244.77;;;13.30;99.90;;;;;;5037685;28;20440;-87
2021/09/22 01:05:21;;;;;;;241.07;224.47;;;13.30;99.90;;;;;;5055482;28;20411;-87
2021/09/22 01:07:47;;;;;;;238.63;221.97;;;13.30;99.90;;;;;;5037497;28;20249;-87
2021/09/22 01:10:13;;;;;;;253.43;236.37;;;13.30;99.90;;;;;;5055354;28;20437;-87
2021/09/22 01:12:39;;;;;;;254.60;237.43;;;13.30;99.90;;;;;;5055284;28;20895;-87
2021/09/22 01:15:06;;;;;;;270.63;252.87;;;13.20;99.90;;;;;;5037328;28;20446;-87
2021/09/22 01:17:32;;;;;;;298.60;279.57;;;13.20;99.90;;;;;;5037192;28;20470;-87
2021/09/22 01:20:07;;;;;;;298.03;279.17;;;13.20;99.90;;;;;;5038208;28;20506;-87
2021/09/22 01:22:33;;;;;;;326.00;305.97;;;13.20;99.90;;;;;;5037215;28;20416;-87
2021/09/22 01:24:59;;;;;;;288.17;269.87;;;13.20;99.90;;;;;;5055317;28;20406;-87
2021/09/22 01:27:28;;;;;;;280.23;262.07;;;13.20;99.90;;;;;;5054943;28;20510;-87
2021/09/22 01:29:53;;;;;;;263.80;246.13;;;13.20;99.90;;;;;;5055272;28;20497;-87
2021/09/22 01:32:20;;;;;;;326.87;307.00;;;13.20;99.90;;;;;;5037890;28;20442;-87
2021/09/22 01:34:46;;;;;;;328.40;307.97;;;13.10;99.90;;;;;;5036909;28;20486;-87
2021/09/22 01:37:12;;;;;;;327.70;307.53;;;13.10;99.90;;;;;;5037170;28;20509;-87
2021/09/22 01:39:46;;;;;;;308.20;289.30;;;13.00;99.90;;;;;;5054750;28;20556;-87
2021/09/22 01:42:12;;;;;;;308.70;289.60;;;13.00;99.90;;;;;;5036935;28;20506;-87
2021/09/22 01:44:38;;;;;;;350.83;329.70;;;13.00;99.90;;;;;;5053895;28;20431;-87
2021/09/22 01:47:04;;;;;;;325.67;305.13;;;13.00;99.90;;;;;;5054781;28;20188;-87
2021/09/22 01:49:30;;;;;;;320.37;300.53;;;13.00;99.90;;;;;;5036779;28;20191;-87
2021/09/22 01:52:00;;;;;;;313.97;294.83;;;13.00;99.90;;;;;;5037055;28;20438;-87
2021/09/22 01:54:26;;;;;;;355.27;334.13;;;13.00;99.90;;;;;;5054403;28;20675;-87
2021/09/22 01:56:53;;;;;;;295.40;276.57;;;12.90;99.90;;;;;;5036478;28;20427;-87
2021/09/22 01:59:19;;;;;;;321.53;301.90;;;12.90;99.90;;;;;;5054379;28;20399;-87
2021/09/22 02:01:45;;;;;;;346.00;325.43;;;12.90;99.90;;;;;;5036431;28;20775;-87
2021/09/22 02:04:11;;;;;;;250.93;234.20;;;12.90;99.90;;;;;;5054565;28;20403;-87
2021/09/22 02:06:37;;;;;;;330.27;310.37;;;12.90;99.90;;;;;;5054478;28;20501;-87
2021/09/22 02:09:03;;;;;;;291.37;272.63;;;12.90;99.90;;;;;;5054804;28;20414;-87
2021/09/22 02:11:29;;;;;;;307.97;288.57;;;12.90;99.90;;;;;;5054159;28;20157;-87
2021/09/22 02:13:55;;;;;;;327.57;307.70;;;12.80;99.90;;;;;;5054059;28;20443;-87
2021/09/22 02:16:20;;;;;;;346.50;325.73;;;12.80;99.90;;;;;;5054293;28;20410;-87
2021/09/22 02:18:46;;;;;;;321.73;301.83;;;12.80;99.90;;;;;;5054325;28;20160;-87
2021/09/22 02:21:12;;;;;;;280.90;262.53;;;12.70;99.90;;;;;;5053992;28;20165;-87
2021/09/22 02:23:39;;;;;;;303.40;283.95;;;12.80;99.90;;;;;;5054404;28;20165;-87
2021/09/22 02:26:06;;;;;;;285.70;267.77;;;12.70;99.90;;;;;;5053770;28;20165;-86
2021/09/22 02:28:32;;;;;;;293.33;274.93;;;12.70;99.90;;;;;;5054156;28;20445;-87
2021/09/22 02:31:01;;;;;;;278.73;260.63;;;12.60;99.90;;;;;;5053829;28;20399;-87
2021/09/22 02:33:27;;;;;;;338.70;318.07;;;12.70;99.90;;;;;;5036124;28;20418;-87
2021/09/22 02:35:52;;;;;;;292.43;273.77;;;12.60;99.90;;;;;;5053689;28;20396;-87
2021/09/22 02:38:19;;;;;;;271.70;254.03;;;12.60;99.90;;;;;;5053611;28;20238;-87
2021/09/22 02:40:45;;;;;;;307.40;288.17;;;12.60;99.90;;;;;;5053680;28;20204;-87
2021/09/22 02:43:12;;;;;;;285.63;267.63;;;12.60;99.90;;;;;;5035691;28;20418;-87
2021/09/22 02:45:38;;;;;;;290.23;271.80;;;12.60;99.90;;;;;;5053865;28;20524;-87
2021/09/22 02:48:03;;;;;;;312.67;293.13;;;12.50;99.90;;;;;;5053427;28;20418;-87
2021/09/22 02:50:29;;;;;;;348.33;327.17;;;12.50;99.90;;;;;;5053531;28;20478;-87
2021/09/22 02:52:55;;;;;;;334.00;313.37;;;12.50;99.90;;;;;;5053403;28;20937;-87
2021/09/22 02:55:21;;;;;;;245.00;228.37;;;12.50;99.90;;;;;;5053272;28;20262;-87
2021/09/22 02:57:47;;;;;;;360.90;339.07;;;12.40;99.90;;;;;;5035880;28;20427;-87
2021/09/22 03:00:14;;;;;;;332.60;312.17;;;12.40;99.90;;;;;;5054186;28;20157;-87
2021/09/22 03:02:40;;;;;;;306.43;287.60;;;12.40;99.90;;;;;;5053269;28;20171;-87
2021/09/22 03:05:06;;;;;;;316.17;296.58;;;12.40;99.90;;;;;;5035416;28;21004;-87
2021/09/22 03:07:32;;;;;;;321.38;300.98;;;12.40;99.90;;;;;;5053302;28;20199;-87
2021/09/22 03:09:58;;;;;;;307.97;288.77;;;12.40;99.90;;;;;;5035914;28;20173;-87
2021/09/22 03:12:23;;;;;;;303.60;285.07;;;12.30;99.90;;;;;;5053200;28;20172;-87
2021/09/22 03:14:49;;;;;;;324.40;304.07;;;12.30;99.90;;;;;;5053145;28;20196;-87
2021/09/22 03:17:15;;;;;;;332.10;311.67;;;12.30;99.90;;;;;;5053227;28;20188;-87
2021/09/22 03:19:40;;;;;;;335.50;314.87;;;12.30;99.90;;;;;;5053664;28;20179;-87
2021/09/22 03:22:06;;;;;;;310.13;291.10;;;12.30;99.90;;;;;;5053102;28;20160;-87
2021/09/22 03:24:32;;;;;;;301.10;282.13;;;12.30;99.90;;;;;;5053621;28;20168;-87
2021/09/22 03:26:58;;;;;;;335.13;314.77;;;12.30;99.90;;;;;;5035493;28;20192;-87
2021/09/22 03:29:24;;;;;;;306.73;287.05;;;12.30;99.90;;;;;;5053271;28;20535;-87
2021/09/22 03:31:49;;;;;;;302.33;282.83;;;12.20;99.90;;;;;;5053500;28;20173;-87
2021/09/22 03:34:15;;;;;;;289.60;271.10;;;12.20;99.90;;;;;;5053175;28;20725;-87
2021/09/22 03:36:41;;;;;;;314.90;295.23;;;12.20;99.90;;;;;;5035271;28;20185;-87
2021/09/22 03:39:07;;;;;;;236.60;219.20;;;12.20;99.90;;;;;;5035016;28;20187;-87
2021/09/22 03:41:33;;;;;;;250.40;232.98;;;12.10;99.90;;;;;;5035378;28;20157;-87
2021/09/22 03:43:58;;;;;;;276.30;258.07;;;12.10;99.90;;;;;;5052888;28;20171;-87
2021/09/22 03:46:24;;;;;;;315.97;296.17;;;12.10;99.90;;;;;;5053071;28;20528;-87
2021/09/22 03:48:50;;;;;;;330.37;310.07;;;12.10;99.90;;;;;;5034908;28;20165;-87
2021/09/22 03:51:16;;;;;;;337.83;316.77;;;12.10;99.90;;;;;;5053098;28;20165;-87
2021/09/22 03:53:41;;;;;;;299.00;280.23;;;12.10;99.90;;;;;;5052751;28;20176;-87
2021/09/22 03:56:08;;;;;;;329.73;309.43;;;12.10;99.90;;;;;;5035101;28;20161;-87
2021/09/22 03:58:33;;;;;;;309.02;290.23;;;12.10;99.90;;;;;;5053098;28;20399;-87
2021/09/22 04:00:59;;;;;;;380.13;357.40;;;12.10;99.90;;;;;;5034910;28;20216;-87
2021/09/22 04:03:25;;;;;;;342.07;321.17;;;12.10;99.90;;;;;;5052709;28;20157;-87
2021/09/22 04:05:51;;;;;;;308.83;289.83;;;12.00;99.90;;;;;;5053677;28;20538;-87
2021/09/22 04:08:16;;;;;;;300.27;281.33;;;12.00;99.90;;;;;;5055809;28;20925;-87
2021/09/22 04:10:42;;;;;;;329.27;309.40;;;12.00;99.90;;;;;;5038658;28;20260;-87
2021/09/22 04:13:08;;;;;;;295.30;276.33;;;12.00;99.90;;;;;;5056410;28;20211;-87
2021/09/22 04:15:34;;;;;;;282.23;264.13;;;11.90;99.90;;;;;;5056413;28;21005;-87
2021/09/22 04:18:00;;;;;;;256.37;237.87;;;11.90;99.90;;;;;;5038753;28;20643;-87
2021/09/22 04:20:25;;;;;;;262.13;244.43;;;11.90;99.90;;;;;;5056297;28;20399;-87
2021/09/22 04:22:51;;;;;;;270.30;251.40;;;11.90;99.90;;;;;;5056342;28;20414;-87
2021/09/22 04:25:17;;;;;;;196.07;180.13;;;11.90;99.90;;;;;;5056505;28;20241;-87
2021/09/22 04:27:43;;;;;;;144.87;131.00;;;11.90;99.90;;;;;;5038551;28;20192;-87
2021/09/22 04:30:09;;;;;;;199.67;183.40;;;11.90;99.90;;;;;;5056166;28;20169;-87
2021/09/22 04:32:35;;;;;;;112.63;90.60;;;11.90;99.90;;;;;;5056042;28;20574;-87
2021/09/22 04:35:01;;;;;;;147.20;133.32;;;11.80;99.90;;;;;;5055928;28;20197;-87
2021/09/22 04:37:32;;;;;;;150.90;136.83;;;11.80;99.90;;;;;;5038643;28;20187;-87
2021/09/22 04:39:57;;;;;;;137.05;123.72;;;11.80;99.90;;;;;;5056030;28;20259;-87
2021/09/22 04:42:23;;;;;;;146.40;132.40;;;11.80;99.90;;;;;;5038008;28;20207;-87
2021/09/22 04:44:49;;;;;;;123.90;110.77;;;11.80;99.90;;;;;;5055873;28;20460;-87
2021/09/22 04:47:14;;;;;;;201.90;186.07;;;11.80;99.90;;;;;;5055795;28;20203;-87
2021/09/22 04:49:40;;;;;;;136.97;123.13;;;11.80;99.90;;;;;;5055781;28;20635;-87
2021/09/22 04:52:06;;;;;;;126.70;113.40;;;11.80;99.90;;;;;;5055678;28;20172;-87
2021/09/22 04:54:32;;;;;;;131.57;118.03;;;11.80;99.90;;;;;;5038258;28;20196;-87
2021/09/22 04:56:57;;;;;;;114.00;92.83;;;11.80;99.90;;;;;;5055614;28;20180;-87
2021/09/22 04:59:23;;;;;;;123.77;110.60;;;11.70;99.90;;;;;;5055623;28;20203;-87
2021/09/22 05:01:49;;;;;;;120.80;108.30;;;11.80;99.90;;;;;;5055887;28;20556;-87
2021/09/22 05:04:14;;;;;;;121.00;107.83;;;11.80;99.90;;;;;;5038266;28;20192;-87
2021/09/22 05:06:40;;;;;;;138.57;125.13;;;11.70;99.90;;;;;;5037722;28;20184;-87
2021/09/22 05:09:06;;;;;;;149.63;135.80;;;11.80;99.90;;;;;;5055637;28;20659;-87
2021/09/22 05:11:31;;;;;;;126.73;113.53;;;11.70;99.90;;;;;;5055435;28;20601;-87
2021/09/22 05:13:59;;;;;;;124.70;111.80;;;11.70;99.90;;;;;;5037566;28;20283;-87
2021/09/22 05:16:24;;;;;;;132.50;119.18;;;11.70;99.90;;;;;;5037598;28;20189;-87
2021/09/22 05:18:50;;;;;;;127.80;114.40;;;11.60;99.90;;;;;;5037441;28;20235;-87
2021/09/22 05:21:16;;;;;;;251.87;233.17;;;11.50;99.90;;;;;;5037433;28;20251;-87
2021/09/22 05:23:41;;;;;;;355.50;332.33;;;11.50;99.90;;;;;;5055605;28;20620;-86
2021/09/22 05:26:07;;;;;;;356.13;332.90;;;11.50;99.90;;;;;;5055452;28;20160;-86
2021/09/22 05:28:33;;;;;;;435.77;409.50;;;11.50;99.90;;;;;;5055115;28;20175;-86
2021/09/22 05:30:58;;;;;;;424.87;398.97;;;11.40;99.90;;;;;;5055201;28;20237;-86
2021/09/22 05:33:24;;;;;;;464.40;437.33;;;11.50;99.90;;;;;;5037791;28;20168;-87
2021/09/22 05:35:50;;;;;;;421.43;396.13;;;11.50;99.90;;;;;;5054951;28;20192;-87
2021/09/22 05:38:16;;;;;;;447.90;421.73;;;11.50;99.90;;;;;;5054881;28;20177;-86
2021/09/22 05:40:41;;;;;;;480.87;452.33;;;11.50;99.90;;;;;;5055769;28;20575;-86
2021/09/22 05:43:07;;;;;;;437.63;411.00;;;11.60;99.90;;;;;;5055079;28;20179;-87
2021/09/22 05:45:33;;;;;;;355.23;332.53;;;11.60;99.90;;;;;;5037443;28;20200;-87
2021/09/22 05:47:59;;;;;;;374.37;350.67;;;11.60;99.90;;;;;;5054867;28;20279;-87
2021/09/22 05:50:24;;;;;;;438.67;412.73;;;11.60;99.90;;;;;;5056569;28;20616;-88
2021/09/22 05:52:50;;;;;;;409.00;383.47;;;11.60;99.90;;;;;;5037789;28;20725;-88
2021/09/22 05:55:16;;;;;;;376.53;352.97;;;11.60;99.90;;;;;;5055095;28;20965;-88
2021/09/22 05:57:47;;;;;;;393.30;368.90;;;11.60;99.90;;;;;;5055338;28;20230;-88
2021/09/22 06:00:36;;;;;;;375.63;351.92;;;11.60;99.90;;;;;;5032134;28;20173;-88
2021/09/22 06:03:11;;;;;;;450.67;423.73;;;11.60;99.90;;;;;;5037083;28;20164;-88
2021/09/22 06:05:39;;;;;;;543.67;513.05;;;11.60;99.90;;;;;;5054845;28;20163;-86
2021/09/22 06:08:08;;;;;;;520.58;490.42;;;11.60;99.90;;;;;;5054582;28;20197;-87
2021/09/22 06:10:35;;;;;;;495.75;466.05;;;11.60;99.90;;;;;;5054515;28;20164;-88
2021/09/22 06:13:01;;;;;;;433.48;407.58;;;11.70;99.90;;;;;;5054386;28;20654;-87
2021/09/22 06:15:28;;;;;;;504.63;475.05;;;11.70;99.90;;;;;;5036693;28;20199;-87
2021/09/22 06:17:54;;;;;;;446.58;419.80;;;11.70;99.90;;;;;;5054199;28;20177;-87
2021/09/22 06:20:19;;;;;;;464.27;436.47;;;11.60;99.90;;;;;;5036300;28;20539;-87
2021/09/22 06:22:45;;;;;;;516.07;486.47;;;11.60;99.90;;;;;;5054123;28;20387;-87
2021/09/22 06:25:13;;;;;;;502.23;473.13;;;11.70;99.90;;;;;;5054037;28;20387;-87
2021/09/22 06:27:40;;;;;;;500.17;472.08;;;11.70;99.90;;;;;;5053853;28;21000;-87
2021/09/22 06:30:12;;;;;;;478.77;451.30;;;11.70;99.90;;;;;;5053361;28;20187;-87
2021/09/22 06:32:39;;;;;;;473.33;446.90;;;11.70;99.90;;;;;;5036401;28;20160;-87
2021/09/22 06:35:07;;;;;;;454.85;429.23;;;11.80;99.90;;;;;;5054005;28;20207;-87
2021/09/22 06:37:32;;;;;;;447.13;421.52;;;11.80;99.90;;;;;;5053604;28;20192;-87
2021/09/22 06:39:58;;;;;;;476.10;448.83;;;11.80;99.90;;;;;;5115297;23;20228;-80
2021/09/22 06:42:24;;;;;;;486.00;459.27;;;11.80;99.90;;;;;;5035429;28;20199;-81
2021/09/22 06:44:50;;;;;;;430.43;406.57;;;11.80;99.90;;;;;;5035791;28;20165;-82
2021/09/22 06:47:15;;;;;;;489.60;462.57;;;11.90;99.90;;;;;;5035624;28;20238;-81
2021/09/22 06:49:41;;;;;;;462.33;436.20;;;11.90;99.90;;;;;;5018065;28;20211;-81
2021/09/22 06:52:07;;;;;;;452.50;425.57;;;11.90;99.90;;;;;;5034975;28;20196;-81
2021/09/22 06:54:35;;;;;;;444.73;419.20;;;11.90;99.90;;;;;;5035229;28;20193;-81
2021/09/22 06:57:01;;;;;;;445.42;420.15;;;11.90;99.90;;;;;;5035326;28;20188;-81
2021/09/22 06:59:27;;;;;;;440.13;415.33;;;12.00;99.90;;;;;;5035136;28;20165;-81
2021/09/22 07:01:53;;;;;;;456.90;431.30;;;11.90;99.90;;;;;;5035340;28;20157;-81
2021/09/22 07:04:18;;;;;;;436.80;411.60;;;11.90;99.90;;;;;;5035184;28;20404;-81
2021/09/22 07:06:44;;;;;;;462.57;436.73;;;11.90;99.90;;;;;;5034730;28;20189;-82
2021/09/22 07:09:10;;;;;;;419.77;395.80;;;11.90;99.90;;;;;;5035275;28;20203;-82
2021/09/22 07:11:36;;;;;;;484.20;456.65;;;11.90;99.90;;;;;;5035356;28;20583;-81
2021/09/22 07:14:02;;;;;;;428.27;404.20;;;11.90;99.90;;;;;;5035346;28;20193;-82
2021/09/22 07:16:28;;;;;;;387.70;365.35;;;11.90;99.90;;;;;;5035279;28;20247;-82
2021/09/22 07:18:54;;;;;;;371.17;349.63;;;11.90;99.90;;;;;;5035472;28;20165;-81
2021/09/22 07:21:20;;;;;;;408.03;385.13;;;11.90;99.90;;;;;;5017952;28;20180;-81
2021/09/22 07:23:45;;;;;;;372.93;351.60;;;11.90;99.90;;;;;;5034965;28;20540;-82
2021/09/22 07:26:11;;;;;;;386.80;364.27;;;11.90;99.90;;;;;;5034866;28;20158;-82
2021/09/22 07:28:37;;;;;;;389.07;366.77;;;12.00;99.90;;;;;;5017655;28;20169;-82
2021/09/22 07:31:04;;;;;;;374.13;352.20;;;12.00;99.90;;;;;;5034706;28;20619;-82
2021/09/22 07:33:30;;;;;;;380.13;358.50;;;12.10;99.90;;;;;;5034740;28;20242;-81
2021/09/22 07:35:56;;;;;;;398.60;375.63;;;12.20;99.90;;;;;;5034870;28;20691;-82
2021/09/22 07:38:22;;;;;;;357.55;336.17;;;12.20;99.90;;;;;;5034722;28;20458;-82
2021/09/22 07:40:48;;;;;;;422.70;398.43;;;12.20;99.90;;;;;;5034522;28;20204;-81
2021/09/22 07:43:14;;;;;;;444.43;418.73;;;12.30;99.90;;;;;;5037895;28;20487;-82
2021/09/22 07:45:39;;;;;;;413.42;389.30;;;12.30;99.90;;;;;;5039181;28;20894;-82
2021/09/22 07:48:06;;;;;;;419.23;395.37;;;12.30;99.90;;;;;;5021059;28;20196;-81
2021/09/22 07:50:32;;;;;;;440.25;414.90;;;12.40;99.90;;;;;;5039186;28;20192;-81
2021/09/22 07:52:58;;;;;;;400.15;376.27;;;12.40;99.90;;;;;;5021583;28;20173;-82
2021/09/22 07:55:24;;;;;;;463.27;436.93;;;12.50;99.90;;;;;;5038861;28;20188;-81
2021/09/22 07:57:53;;;;;;;437.97;412.47;;;12.60;99.90;;;;;;5038696;28;20213;-81
2021/09/22 08:00:21;;;;;;;480.60;452.50;;;12.60;99.90;;;;;;5021079;28;20532;-81
2021/09/22 08:02:47;;;;;;;497.95;468.38;;;12.70;99.90;;;;;;5038195;28;20645;-80
2021/09/22 08:05:12;;;;;;;492.55;463.90;;;12.80;99.90;;;;;;5038309;28;20609;-82
2021/09/22 08:07:38;;;;;;;483.47;455.60;;;12.90;99.90;;;;;;5038700;28;20197;-81
2021/09/22 08:10:05;;;;;;;481.63;453.07;;;12.90;99.90;;;;;;5038635;28;20161;-81
2021/09/22 08:12:31;;;;;;;470.00;441.83;;;13.00;99.90;;;;;;5038383;28;20291;-82
2021/09/22 08:14:57;;;;;;;467.53;439.83;;;13.00;99.90;;;;;;5038396;28;20427;-82
2021/09/22 08:17:23;;;;;;;440.63;413.73;;;13.20;99.90;;;;;;5038067;28;20519;-82
2021/09/22 08:19:48;;;;;;;461.63;433.43;;;13.30;99.90;;;;;;5038958;28;20162;-82
2021/09/22 08:22:15;;;;;;;472.97;443.73;;;13.30;99.90;;;;;;5038558;28;20400;-82
2021/09/22 08:24:41;;;;;;;403.40;377.70;;;13.40;99.90;;;;;;5021271;28;20234;-82
2021/09/22 08:27:06;;;;;;;382.07;357.53;;;13.40;99.90;;;;;;5038712;28;20189;-82
2021/09/22 08:29:33;;;;;;;389.23;364.43;;;13.40;99.90;;;;;;5038611;28;20389;-82
2021/09/22 08:31:59;;;;;;;338.37;315.17;;;13.40;99.90;;;;;;5021363;28;20587;-82
2021/09/22 08:34:26;;;;;;;383.93;358.30;;;13.50;99.90;;;;;;5038665;28;20439;-82
2021/09/22 08:36:52;;;;;;;379.67;354.20;;;13.50;99.90;;;;;;5019813;28;20811;-82
2021/09/22 08:39:18;;;;;;;417.90;391.23;;;13.40;99.90;;;;;;5038080;28;20835;-82
2021/09/22 08:41:46;;;;;;;238.30;219.95;;;13.40;99.90;;;;;;5038386;28;20495;-81
2021/09/22 08:44:13;;;;;;;204.83;187.23;;;13.60;99.90;;;;;;5038299;28;20169;-82
2021/09/22 08:46:40;;;;;;;146.30;132.07;;;13.70;99.90;;;;;;5038211;28;20430;-81
2021/09/22 08:49:07;;;;;;;128.47;114.40;;;13.90;99.90;;;;;;5038305;28;20411;-82
2021/09/22 08:51:33;;;;;;;183.07;166.93;;;14.00;99.90;;;;;;5038174;28;20400;-81
2021/09/22 08:54:00;;;;;;;274.80;254.83;;;14.00;99.90;;;;;;5037468;28;20404;-82
2021/09/22 08:56:27;;;;;;;119.10;104.13;;;14.10;99.90;;;;;;5037456;28;20424;-81
2021/09/22 08:58:53;;;;;;;109.07;83.57;;;14.20;99.90;;;;;;5037653;28;20404;-82
2021/09/22 09:01:21;;;;;;;122.90;101.57;;;14.20;99.90;;;;;;5038058;28;20411;-81
2021/09/22 09:03:49;;;;;;;136.73;122.33;;;14.30;99.90;;;;;;5019982;28;20408;-82
2021/09/22 09:06:17;;;;;;;124.80;110.80;;;14.30;99.90;;;;;;5037542;28;20462;-81
2021/09/22 09:08:42;;;;;;;117.17;98.60;;;14.40;99.90;;;;;;5037920;28;20404;-82
2021/09/22 09:11:08;;;;;;;110.97;88.47;;;14.60;99.90;;;;;;5037895;28;20477;-82
2021/09/22 09:13:53;;;;;;;129.37;115.43;;;14.60;99.90;;;;;;5037544;28;20165;-82
2021/09/22 09:16:22;;;;;;;113.23;91.13;;;14.70;99.90;;;;;;5037903;28;20524;-82
2021/09/22 09:18:52;;;;;;;104.17;77.43;;;14.70;99.90;;;;;;5037894;28;20403;-82
2021/09/22 09:21:18;;;;;;;106.03;80.93;;;14.70;99.90;;;;;;5019490;28;20428;-82
2021/09/22 09:23:58;;;;;;;118.60;93.77;;;14.70;99.90;;;;;;5019296;28;20436;-82
2021/09/22 09:26:27;;;;;;;119.60;97.20;;;14.70;99.90;;;;;;5020268;28;20430;-82
2021/09/22 09:28:56;;;;;;;103.90;80.70;;;14.80;99.90;;;;;;5036975;28;20476;-82
2021/09/22 09:31:28;;;;;;;106.37;84.53;;;15.00;99.90;;;;;;5019275;28;20450;-82
2021/09/22 09:33:56;;;;;;;108.63;83.27;;;15.00;99.90;;;;;;5019601;28;20457;-81
2021/09/22 09:36:32;;;;;;;107.13;87.60;;;15.20;99.90;;;;;;5019601;28;20508;-81
2021/09/22 09:39:03;;;;;;;114.27;101.83;;;15.30;99.90;;;;;;5036997;28;20457;-82
2021/09/22 09:41:50;;;;;;;106.27;82.03;;;15.30;99.90;;;;;;5019557;28;20420;-82
2021/09/22 09:44:21;;;;;;;119.27;102.00;;;15.40;99.90;;;;;;5037595;28;20739;-82
2021/09/22 09:46:47;;;;;;;117.97;103.00;;;15.50;99.90;;;;;;5002917;28;20461;-82
2021/09/22 09:49:17;;;;;;;122.03;108.97;;;15.70;99.90;;;;;;5036579;28;20394;-81
2021/09/22 09:51:48;;;;;;;181.67;166.37;;;15.80;99.90;;;;;;5036611;28;20447;-82
2021/09/22 09:54:33;;;;;;;167.07;152.43;;;15.80;99.90;;;;;;5036630;28;20517;-81
2021/09/22 09:57:12;;;;;;;189.37;173.83;;;15.90;99.90;;;;;;5018965;28;20429;-82
2021/09/22 09:59:50;;;;;;;197.27;181.80;;;16.30;99.90;;;;;;5036668;28;20400;-82
2021/09/22 10:02:42;;;;;;;224.33;208.23;;;16.30;99.90;;;;;;5036719;28;20437;-81
2021/09/22 10:05:08;;;;;;;199.13;183.67;;;16.30;99.90;;;;;;5014758;28;20435;-81
2021/09/22 10:07:35;;;;;;;185.17;169.97;;;16.40;99.90;;;;;;5036553;28;20513;-81
2021/09/22 10:10:03;;;;;;;112.07;93.50;;;16.70;99.90;;;;;;5036349;28;20413;-81
2021/09/22 10:12:29;;;;;;;103.90;81.30;;;16.80;99.90;;;;;;5019475;28;20820;-81
2021/09/22 10:14:55;;;;;;;100.40;70.27;;;16.90;99.90;;;;;;5018876;28;20496;-81
2021/09/22 10:17:24;;;;;;;98.73;70.43;;;16.90;99.90;;;;;;5036249;28;20425;-82
2021/09/22 10:19:53;;;;;;;138.23;124.53;;;17.10;99.90;;;;;;5018235;28;20412;-82
2021/09/22 10:22:19;;;;;;;137.50;123.70;;;17.30;94.10;;;;;;5018484;28;20408;-81
2021/09/22 10:24:49;;;;;;;176.97;162.27;;;17.60;96.60;;;;;;5035671;28;20408;-82
2021/09/22 10:27:16;;;;;;;142.13;128.60;;;17.80;93.20;;;;;;5018200;28;20211;-81
2021/09/22 10:29:52;;;;;;;104.93;89.07;;;17.80;93.70;;;;;;5035998;28;20403;-82
2021/09/22 10:32:35;;;;;;;165.73;151.43;;;17.60;85.00;;;;;;5036025;28;20494;-81
2021/09/22 10:35:26;;;;;;;167.57;153.27;;;17.40;94.30;;;;;;5035124;28;20985;-81
2021/09/22 10:37:57;;;;;;;99.33;75.13;;;17.80;94.30;;;;;;5017850;28;20432;-81
2021/09/22 10:40:40;;;;;;;99.23;72.43;;;18.00;84.50;;;;;;5036166;28;20408;-82
2021/09/22 10:43:18;;;;;;;102.10;80.40;;;18.20;90.60;;;;;;5018531;28;20401;-81
2021/09/22 10:45:45;;;;;;;104.53;86.43;;;18.40;87.10;;;;;;5036045;28;20434;-82
2021/09/22 10:48:23;;;;;;;106.10;94.37;;;18.30;79.10;;;;;;5036084;28;20416;-81
2021/09/22 10:50:52;;;;;;;253.50;236.07;;;18.60;80.80;;;;;;5035560;28;20396;-81
2021/09/22 10:53:32;;;;;;;222.80;206.50;;;18.80;71.50;;;;;;5035408;28;20907;-81
2021/09/22 10:56:30;;;;;;;171.43;156.13;;;19.10;65.00;;;;;;5035684;28;20522;-81
2021/09/22 10:58:58;;;;;;;186.63;171.53;;;19.10;71.50;;;;;;4991360;28;20416;-82
2021/09/22 11:01:39;;;;;;;184.10;168.90;;;19.30;60.30;;;;;;5034933;28;20446;-81
2021/09/22 11:04:05;;;;;;;147.03;132.83;;;19.50;56.20;;;;;;5017946;28;20403;-82
2021/09/22 11:06:51;;;;;;;155.20;141.40;;;19.60;50.10;;;;;;5035558;28;20514;-82
2021/09/22 11:09:17;;;;;;;115.17;102.93;;;19.20;36.20;;;;;;5035830;28;20276;-81
2021/09/22 11:12:01;;;;;;;148.77;134.90;;;19.10;50.60;;;;;;5017524;28;20466;-81
2021/09/22 11:14:43;;;;;;;117.63;105.00;;;19.00;53.10;;;;;;5017416;28;20685;-82
2021/09/22 11:17:22;;;;;;;107.97;95.93;;;19.40;42.30;;;;;;5034697;28;20458;-81
2021/09/22 11:19:59;;;;;;;169.60;155.33;;;19.70;30.00;;;;;;5035489;28;20760;-82
2021/09/22 11:22:36;;;;;;;155.43;141.43;;;19.90;27.60;;;;;;5034640;28;20743;-81
2021/09/22 11:25:05;;;;;;;143.73;130.33;;;20.00;34.00;;;;;;5017341;28;20775;-81
2021/09/22 11:27:31;;;;;;;122.10;109.93;;;20.10;35.50;;;;;;5017804;28;20790;-82
2021/09/22 11:30:02;;;;;;;142.90;129.67;;;20.00;29.50;;;;;;5035477;28;20408;-82
2021/09/22 11:32:35;;;;;;;101.33;85.17;;;19.80;26.90;;;;;;5035678;28;20419;-82
2021/09/22 11:35:03;;;;;;;240.33;223.47;;;20.00;32.50;;;;;;5035755;28;20495;-82
2021/09/22 11:37:52;;;;;;;180.50;166.20;;;20.10;33.00;;;;;;5035342;28;20444;-82
2021/09/22 11:40:17;;;;;;;196.67;181.27;;;20.20;24.90;;;;;;5035178;28;20427;-82
2021/09/22 11:43:00;;;;;;;161.93;147.93;;;20.10;26.50;;;;;;5034794;28;20407;-82
2021/09/22 11:45:36;;;;;;;228.70;212.13;;;20.40;27.50;;;;;;5017545;28;20171;-82
2021/09/22 11:48:02;;;;;;;262.57;244.97;;;20.30;20.60;;;;;;5018028;28;20439;-82
2021/09/22 11:50:45;;;;;;;215.13;199.37;;;20.40;24.00;;;;;;5035168;28;20411;-82
2021/09/22 11:53:14;;;;;;;154.43;140.77;;;20.60;15.70;;;;;;5035615;28;20605;-82
2021/09/22 11:55:41;;;;;;;200.90;185.03;;;20.50;15.00;;;;;;5035268;28;20475;-82
2021/09/22 11:58:09;;;;;;;166.20;151.60;;;20.30;13.40;;;;;;5034819;28;20426;-82
2021/09/22 12:00:36;;;;;;;144.10;130.97;;;20.20;13.00;;;;;;5034907;28;20404;-82
2021/09/22 12:03:10;;;;;;;144.53;131.33;;;20.00;16.40;;;;;;5035341;28;20400;-82
2021/09/22 12:05:36;;;;;;;141.87;128.83;;;19.90;16.80;;;;;;5017118;28;20396;-82
2021/09/22 12:08:02;;;;;;;221.83;205.53;;;20.00;18.30;;;;;;5035209;28;20787;-81
2021/09/22 12:10:28;;;;;;;200.43;185.23;;;20.40;17.30;;;;;;5000931;28;20407;-82
2021/09/22 12:13:03;;;;;;;227.13;211.27;;;20.50;11.30;;;;;;5018392;28;20416;-82